Aeroporto :
LOGIN :

Iscrizione | Disclaimer

   EN    FR    IT 

 










Sommario :    VFR   VFR Marginale   IFR   IFR Intensivo   IFR Molto Intensivo
Visibilità : 
Base nubi : 
>= 8 km
>= 3000ft
5 / 8 km
1000 / 3000 ft
1500m / 5 km
500 / 1000 ft
800 / 1500m
200 / 500 ft
< 800m
< 200 ft
Simboli :   Temporali  Nebbia  Neve Forte  Precipitazioni Forti  Vento > 20 kt
SIGMETs :   Varie  Temporali  Ghiacco  Turbolenza  Onda orograficha  Ceneri Vulcaniche






- Altitudine del aeroporto : 65 ft
- Codice IATA : PIK


EGPK - Glasgow Prestwick

ULTIMO METAR :
  • 062050Z 26015KT 9999 FEW018 BKN032 10/07 Q1002

METARs OBSOLETI :
  • 062020Z 26011KT 9999 FEW018 SCT031 10/07 Q1001
  • 061950Z 25007KT 9999 FEW018 SCT031 09/07 Q1001
  • 061920Z 27013KT 9999 FEW012 SCT025 09/07 Q1001
  • 061850Z 27012KT 9999 FEW012 SCT025 09/07 Q1000

TAF TAF EGPK
Valido dal 06 a 18 ore il 07 a 18 ore UTC


061702Z 0618/0718 25012KT 9999 FEW012 SCT025
PROB40
TEMPO 0618/0706 7000 SHRA BKN012
TEMPO 0706/0709 7000 -RA BKN012
BECMG 0709/0712 19014KT BKN014
TEMPO 0709/0718 4000 RADZ BKN008
TEMPO 0712/0718 20020G30KT



MetMap, La meteo Aeronautica in un colpo d'occhio ! - Copyright ORBIFLY Dicembre 2007 - Disclaimer

ORBIFLY MET'MAP TEAM :

Programmazione e sviluppo : Alexandra Zaïnal
Concezione : Baudouin d'Aumeries
Aiuto per la programmazione : Marc-Olivier Méhu
Supporto tecnico e logistico : Manuel Goepfert
Aiuto per la traduzione : Arnaldo La Scala

Contatto : metmap@orbifly.com




FONTI E CREDITI :

   NOAA